Time;durP1;ratioP1;P1;durP2;ratioP2;P2;SDS_P1;SDS_P2;PMS_P1;PMS_P2;Temp;Humidity;BMP_temperature;BMP_pressure;BME280_temperature;BME280_humidity;BME280_pressure;Samples;Min_cycle;Max_cycle;Signal;HPM_P1;HPM_P2
2022/02/19 00:02:12;;;;;;;3.20;2.13;;;;;;;;;;5053510;28;20039;-74
2022/02/19 00:04:38;;;;;;;2.42;1.35;;;;;;;;;;5053438;28;20391;-74
2022/02/19 00:07:06;;;;;;;1.67;1.48;;;;;;;;;;5053416;28;20017;-74
2022/02/19 00:09:32;;;;;;;3.22;1.92;;;;;;;;;;5053066;28;20025;-74
2022/02/19 00:11:58;;;;;;;1.80;1.70;;;;;;;;;;5053432;28;20024;-74
2022/02/19 00:14:23;;;;;;;1.70;1.60;;;;;;;;;;5053390;28;20033;-73
2022/02/19 00:16:50;;;;;;;1.42;1.33;;;;;;;;;;5053273;28;20021;-77
2022/02/19 00:19:16;;;;;;;2.88;1.92;;;;;;;;;;5052038;28;20029;-76
2022/02/19 00:21:41;;;;;;;2.95;1.83;;;;;;;;;;5052005;28;20025;-75
2022/02/19 00:24:07;;;;;;;2.63;1.88;;;;;;;;;;5053297;28;20025;-76
2022/02/19 00:26:33;;;;;;;2.90;2.00;;;;;;;;;;5053266;28;20108;-75
2022/02/19 00:28:59;;;;;;;2.92;2.08;;;;;;;;;;5052167;28;20115;-75
2022/02/19 00:31:24;;;;;;;3.35;1.75;;;;;;;;;;5056959;28;20025;-75
2022/02/19 00:33:50;;;;;;;3.60;1.92;;;;;;;;;;5057388;28;20029;-75
2022/02/19 00:36:15;;;;;;;1.98;1.65;;;;;;;;;;5056204;28;20102;-75
2022/02/19 00:38:41;;;;;;;1.60;1.50;;;;;;;;;;5057124;28;20032;-68
2022/02/19 00:41:06;;;;;;;4.35;1.88;;;;;;;;;;5057364;28;20017;-69
2022/02/19 00:43:32;;;;;;;5.25;1.85;;;;;;;;;;5057044;28;20115;-69
2022/02/19 00:45:57;;;;;;;1.27;1.17;;;;;;;;;;5056832;28;20040;-68
2022/02/19 00:48:23;;;;;;;1.60;1.45;;;;;;;;;;5055191;28;20025;-68
2022/02/19 00:50:49;;;;;;;1.95;1.08;;;;;;;;;;5055532;28;20127;-68
2022/02/19 00:53:15;;;;;;;3.00;2.10;;;;;;;;;;5056661;28;20031;-69
2022/02/19 00:55:41;;;;;;;2.15;1.50;;;;;;;;;;5055426;28;20021;-69
2022/02/19 00:58:06;;;;;;;2.70;2.10;;;;;;;;;;5055368;28;20028;-68
2022/02/19 01:00:32;;;;;;;2.83;1.70;;;;;;;;;;5055318;28;20021;-69
2022/02/19 01:03:24;;;;;;;1.60;1.23;;;;;;;;;;5056047;28;20075;-69
2022/02/19 01:05:49;;;;;;;0.98;0.65;;;;;;;;;;5055218;28;20029;-69
2022/02/19 01:08:15;;;;;;;4.63;0.90;;;;;;;;;;5055288;28;20051;-69
2022/02/19 01:10:40;;;;;;;0.55;0.55;;;;;;;;;;5055009;28;20032;-72
2022/02/19 01:13:06;;;;;;;0.73;0.63;;;;;;;;;;5055373;28;20052;-72
2022/02/19 01:15:31;;;;;;;0.63;0.45;;;;;;;;;;5056727;28;20028;-72
2022/02/19 01:17:57;;;;;;;0.68;0.57;;;;;;;;;;5055256;28;20017;-72
2022/02/19 01:20:23;;;;;;;3.22;1.05;;;;;;;;;;5056528;28;20029;-72
2022/02/19 01:22:49;;;;;;;1.20;0.73;;;;;;;;;;5055127;28;20028;-72
2022/02/19 01:25:15;;;;;;;1.23;0.90;;;;;;;;;;5056250;28;20033;-72
2022/02/19 01:27:49;;;;;;;0.70;0.70;;;;;;;;;;5056266;28;20387;-72
2022/02/19 01:30:16;;;;;;;0.82;0.60;;;;;;;;;;5054896;28;20033;-72
2022/02/19 01:32:42;;;;;;;0.90;0.90;;;;;;;;;;5055248;28;20036;-72
2022/02/19 01:35:08;;;;;;;1.35;1.05;;;;;;;;;;5054914;28;20025;-72
2022/02/19 01:37:35;;;;;;;1.05;0.95;;;;;;;;;;5055102;28;20021;-72
2022/02/19 01:40:00;;;;;;;0.80;0.80;;;;;;;;;;5054934;28;20411;-73
2022/02/19 01:42:27;;;;;;;1.05;0.90;;;;;;;;;;5054839;28;20036;-73
2022/02/19 01:44:53;;;;;;;1.52;0.60;;;;;;;;;;5054962;28;20473;-73
2022/02/19 01:47:19;;;;;;;2.10;0.80;;;;;;;;;;5054923;28;20150;-72
2022/02/19 01:49:45;;;;;;;0.60;0.52;;;;;;;;;;5054987;28;20045;-72
2022/02/19 01:52:12;;;;;;;0.98;0.65;;;;;;;;;;5038413;28;20044;-72
2022/02/19 01:54:41;;;;;;;0.85;0.73;;;;;;;;;;5054791;28;20029;-73
2022/02/19 01:57:19;;;;;;;1.70;0.80;;;;;;;;;;5056034;28;20013;-71
2022/02/19 01:59:58;;;;;;;1.45;0.60;;;;;;;;;;5054502;28;20024;-71
2022/02/19 02:02:42;;;;;;;1.67;0.63;;;;;;;;;;5055986;28;20579;-68
2022/02/19 02:05:36;;;;;;;1.00;0.80;;;;;;;;;;5054396;28;20029;-69
2022/02/19 02:08:06;;;;;;;1.42;0.73;;;;;;;;;;5054420;28;20494;-72
2022/02/19 02:10:35;;;;;;;1.10;0.88;;;;;;;;;;5054075;28;20029;-72
2022/02/19 02:13:07;;;;;;;2.30;1.13;;;;;;;;;;5054382;28;20044;-72
2022/02/19 02:15:34;;;;;;;1.88;0.85;;;;;;;;;;5054507;28;20056;-72
2022/02/19 02:18:22;;;;;;;0.90;0.70;;;;;;;;;;5054279;28;20029;-72
2022/02/19 02:20:48;;;;;;;1.20;0.75;;;;;;;;;;5054151;28;20029;-73
2022/02/19 02:23:18;;;;;;;0.98;0.60;;;;;;;;;;5054413;28;20099;-73
2022/02/19 02:25:45;;;;;;;1.05;0.60;;;;;;;;;;5054101;28;20041;-73
2022/02/19 02:28:13;;;;;;;1.92;0.60;;;;;;;;;;5054004;28;20535;-73
2022/02/19 02:30:40;;;;;;;2.20;0.60;;;;;;;;;;5053949;28;20060;-73
2022/02/19 02:33:13;;;;;;;0.30;0.30;;;;;;;;;;5053968;28;20017;-74
2022/02/19 02:35:40;;;;;;;0.95;0.70;;;;;;;;;;5053850;28;20028;-74
2022/02/19 02:38:06;;;;;;;0.98;0.82;;;;;;;;;;5053572;28;20017;-74
2022/02/19 02:40:32;;;;;;;0.70;0.60;;;;;;;;;;5053673;28;20052;-74
2022/02/19 02:42:59;;;;;;;1.48;0.65;;;;;;;;;;5053736;28;20036;-73
2022/02/19 02:45:25;;;;;;;1.02;0.57;;;;;;;;;;5053574;28;20391;-72
2022/02/19 02:47:50;;;;;;;1.33;0.70;;;;;;;;;;5053040;28;20063;-70
2022/02/19 02:50:16;;;;;;;0.30;0.30;;;;;;;;;;5053443;28;20488;-70
2022/02/19 02:52:43;;;;;;;0.68;0.68;;;;;;;;;;5052934;28;20024;-70
2022/02/19 02:55:11;;;;;;;0.98;0.55;;;;;;;;;;5053260;28;20035;-69
2022/02/19 02:57:36;;;;;;;0.57;0.55;;;;;;;;;;5053166;28;20021;-69
2022/02/19 03:00:06;;;;;;;0.55;0.40;;;;;;;;;;5053406;28;20028;-69
2022/02/19 03:02:34;;;;;;;0.73;0.40;;;;;;;;;;5053154;28;20033;-69
2022/02/19 03:05:07;;;;;;;0.77;0.55;;;;;;;;;;5053493;28;20033;-68
2022/02/19 03:07:35;;;;;;;0.73;0.50;;;;;;;;;;5053107;28;20391;-68
2022/02/19 03:10:02;;;;;;;1.40;0.28;;;;;;;;;;5036425;28;20017;-68
2022/02/19 03:12:28;;;;;;;1.35;0.73;;;;;;;;;;5053106;28;20025;-71
2022/02/19 03:14:54;;;;;;;2.00;0.73;;;;;;;;;;5052933;28;20033;-72
2022/02/19 03:17:20;;;;;;;0.80;0.70;;;;;;;;;;5053078;28;20541;-72
2022/02/19 03:19:45;;;;;;;1.67;0.85;;;;;;;;;;5052799;28;20144;-72
2022/02/19 03:22:12;;;;;;;1.00;0.35;;;;;;;;;;5054055;28;20032;-72
2022/02/19 03:24:38;;;;;;;1.67;0.88;;;;;;;;;;5052840;28;20043;-72
2022/02/19 03:27:04;;;;;;;3.00;0.85;;;;;;;;;;5052878;28;20479;-73
2022/02/19 03:29:36;;;;;;;1.27;0.80;;;;;;;;;;5052919;28;20067;-72
2022/02/19 03:32:11;;;;;;;1.75;1.00;;;;;;;;;;5052768;28;20128;-73
2022/02/19 03:34:41;;;;;;;1.38;0.80;;;;;;;;;;5052677;28;20459;-69
2022/02/19 03:37:07;;;;;;;2.63;1.02;;;;;;;;;;5052743;28;20028;-69
2022/02/19 03:39:32;;;;;;;1.23;0.68;;;;;;;;;;5052692;28;20029;-69
2022/02/19 03:41:59;;;;;;;1.80;0.80;;;;;;;;;;5052750;28;20438;-69
2022/02/19 03:44:25;;;;;;;1.20;1.10;;;;;;;;;;5053710;28;20029;-72
2022/02/19 03:46:59;;;;;;;2.40;1.30;;;;;;;;;;5052687;28;20017;-72
2022/02/19 03:49:32;;;;;;;2.58;1.48;;;;;;;;;;5052423;28;20076;-72
2022/02/19 03:51:58;;;;;;;0.98;0.88;;;;;;;;;;5052384;28;20036;-72
2022/02/19 03:54:24;;;;;;;2.85;1.02;;;;;;;;;;5052327;28;20090;-72
2022/02/19 03:56:51;;;;;;;1.08;0.98;;;;;;;;;;5052211;28;20120;-72
2022/02/19 03:59:16;;;;;;;1.45;0.85;;;;;;;;;;5052359;28;20020;-69
2022/02/19 04:01:43;;;;;;;1.05;0.63;;;;;;;;;;5052249;28;20036;-69
2022/02/19 04:04:13;;;;;;;1.90;0.85;;;;;;;;;;5051430;28;20021;-68
2022/02/19 04:06:40;;;;;;;1.33;0.60;;;;;;;;;;5052331;28;20025;-67
2022/02/19 04:09:05;;;;;;;1.48;0.90;;;;;;;;;;5035365;28;20016;-68
2022/02/19 04:11:34;;;;;;;1.80;0.93;;;;;;;;;;5051963;28;20040;-72
2022/02/19 04:13:59;;;;;;;2.40;1.15;;;;;;;;;;5051899;28;20017;-69
2022/02/19 04:16:29;;;;;;;2.35;1.02;;;;;;;;;;5052189;28;20063;-68
2022/02/19 04:18:58;;;;;;;0.85;0.70;;;;;;;;;;5052246;28;20029;-68
2022/02/19 04:21:24;;;;;;;1.20;1.00;;;;;;;;;;5051840;28;20472;-67
2022/02/19 04:23:50;;;;;;;0.77;0.57;;;;;;;;;;5052037;28;20371;-68
2022/02/19 04:26:17;;;;;;;1.90;0.68;;;;;;;;;;5051891;28;20036;-68
2022/02/19 04:28:46;;;;;;;2.38;0.70;;;;;;;;;;5051950;28;20021;-69
2022/02/19 04:31:19;;;;;;;3.80;0.80;;;;;;;;;;5051882;28;20029;-69
2022/02/19 04:33:46;;;;;;;2.15;0.90;;;;;;;;;;5051976;28;20033;-69
2022/02/19 04:36:12;;;;;;;0.68;0.60;;;;;;;;;;5051758;28;20074;-70
2022/02/19 04:38:38;;;;;;;0.82;0.45;;;;;;;;;;5051570;28;20115;-70
2022/02/19 04:41:04;;;;;;;0.73;0.55;;;;;;;;;;5051666;28;20048;-68
2022/02/19 04:43:30;;;;;;;0.50;0.50;;;;;;;;;;5051569;28;20029;-68
2022/02/19 04:45:55;;;;;;;1.70;0.80;;;;;;;;;;5051830;28;20021;-68
2022/02/19 04:48:21;;;;;;;1.30;1.20;;;;;;;;;;5051210;28;20071;-68
2022/02/19 04:50:51;;;;;;;1.03;0.93;;;;;;;;;;5035628;28;20394;-69
2022/02/19 04:53:18;;;;;;;1.27;0.77;;;;;;;;;;5051658;28;20071;-69
2022/02/19 04:55:43;;;;;;;0.80;0.60;;;;;;;;;;5053088;28;20045;-69
2022/02/19 04:58:15;;;;;;;1.25;0.85;;;;;;;;;;5051680;28;20049;-69
2022/02/19 05:00:40;;;;;;;1.80;0.80;;;;;;;;;;5053001;28;20079;-68
2022/02/19 05:03:18;;;;;;;1.33;1.20;;;;;;;;;;5052894;28;20090;-69
2022/02/19 05:05:51;;;;;;;0.95;0.68;;;;;;;;;;5051592;28;20395;-69
2022/02/19 05:08:16;;;;;;;3.92;1.55;;;;;;;;;;5051499;28;20036;-68
2022/02/19 05:10:45;;;;;;;3.88;1.52;;;;;;;;;;5051342;28;20391;-69
2022/02/19 05:13:13;;;;;;;4.03;1.50;;;;;;;;;;5051506;28;20025;-69
2022/02/19 05:15:39;;;;;;;3.53;1.80;;;;;;;;;;5052415;28;20013;-69
2022/02/19 05:18:24;;;;;;;1.65;0.90;;;;;;;;;;5055250;28;20029;-69
2022/02/19 05:20:50;;;;;;;2.22;1.08;;;;;;;;;;5055478;28;20155;-68
2022/02/19 05:23:16;;;;;;;0.90;0.85;;;;;;;;;;5056359;28;20020;-72
2022/02/19 05:25:43;;;;;;;1.52;1.00;;;;;;;;;;5055205;28;20033;-69
2022/02/19 05:28:10;;;;;;;2.22;0.65;;;;;;;;;;5055046;28;20024;-66
2022/02/19 05:30:36;;;;;;;0.65;0.52;;;;;;;;;;5055006;28;20036;-67
2022/02/19 05:33:23;;;;;;;1.00;0.90;;;;;;;;;;5044739;28;20179;-67
2022/02/19 05:35:50;;;;;;;1.23;0.77;;;;;;;;;;5054772;28;20083;-66
2022/02/19 05:38:16;;;;;;;0.77;0.73;;;;;;;;;;5055040;28;20144;-68
2022/02/19 05:40:41;;;;;;;0.75;0.75;;;;;;;;;;5054895;28;20498;-72
2022/02/19 05:43:11;;;;;;;1.65;0.88;;;;;;;;;;5054857;28;20486;-72
2022/02/19 05:45:46;;;;;;;2.47;0.65;;;;;;;;;;5054570;28;20036;-69
2022/02/19 05:48:16;;;;;;;1.80;0.80;;;;;;;;;;5054358;28;20399;-70
2022/02/19 05:51:06;;;;;;;1.02;0.55;;;;;;;;;;5054685;28;20047;-69
2022/02/19 05:53:53;;;;;;;1.40;0.88;;;;;;;;;;5054934;28;20033;-69
2022/02/19 05:56:19;;;;;;;2.85;0.80;;;;;;;;;;5054582;28;20074;-69
2022/02/19 05:58:47;;;;;;;2.22;1.00;;;;;;;;;;5054680;28;20471;-69
2022/02/19 06:01:22;;;;;;;2.33;0.82;;;;;;;;;;5054410;28;20033;-68
2022/02/19 06:03:55;;;;;;;0.80;0.70;;;;;;;;;;5054359;28;20028;-67
2022/02/19 06:06:24;;;;;;;2.20;1.38;;;;;;;;;;5054061;28;20124;-68
2022/02/19 06:08:49;;;;;;;2.72;1.40;;;;;;;;;;5054116;28;20103;-69
2022/02/19 06:11:16;;;;;;;1.05;0.82;;;;;;;;;;5054015;28;20029;-69
2022/02/19 06:14:13;;;;;;;2.92;1.17;;;;;;;;;;5054114;28;20021;-69
2022/02/19 06:16:47;;;;;;;1.92;1.13;;;;;;;;;;5054255;28;20529;-69
2022/02/19 06:19:14;;;;;;;2.65;0.73;;;;;;;;;;5054008;28;20021;-69
2022/02/19 06:21:40;;;;;;;1.17;0.65;;;;;;;;;;5054999;28;20036;-69
2022/02/19 06:24:06;;;;;;;0.35;0.35;;;;;;;;;;5053463;28;20029;-69
2022/02/19 06:26:32;;;;;;;1.73;0.68;;;;;;;;;;5053823;28;20028;-69
2022/02/19 06:29:14;;;;;;;0.98;0.73;;;;;;;;;;5052703;28;20021;-69
2022/02/19 06:31:46;;;;;;;2.33;1.00;;;;;;;;;;5050391;28;20051;-69
2022/02/19 06:34:11;;;;;;;1.77;0.90;;;;;;;;;;5053260;28;20487;-69
2022/02/19 06:36:37;;;;;;;0.73;0.50;;;;;;;;;;5053893;28;20017;-69
2022/02/19 06:39:03;;;;;;;0.93;0.73;;;;;;;;;;5053673;28;20501;-69
2022/02/19 06:41:30;;;;;;;0.50;0.40;;;;;;;;;;5053586;28;20079;-71
2022/02/19 06:44:05;;;;;;;1.25;1.00;;;;;;;;;;5053579;28;20036;-70
2022/02/19 06:46:32;;;;;;;1.95;0.80;;;;;;;;;;5052601;28;20033;-69
2022/02/19 06:48:57;;;;;;;0.40;0.40;;;;;;;;;;5035458;28;20044;-73
2022/02/19 06:51:30;;;;;;;2.92;1.30;;;;;;;;;;5054568;28;20049;-73
2022/02/19 06:53:56;;;;;;;1.88;0.80;;;;;;;;;;5054562;28;20540;-73
2022/02/19 06:56:23;;;;;;;0.77;0.47;;;;;;;;;;5053364;28;20012;-71
2022/02/19 06:58:49;;;;;;;1.15;0.68;;;;;;;;;;5054855;28;20075;-72
2022/02/19 07:01:15;;;;;;;3.03;1.13;;;;;;;;;;5036891;28;20029;-72
2022/02/19 07:03:40;;;;;;;1.48;1.00;;;;;;;;;;5053142;28;20036;-72
2022/02/19 07:06:24;;;;;;;1.67;1.02;;;;;;;;;;5054233;28;20048;-73
2022/02/19 07:08:50;;;;;;;0.57;0.55;;;;;;;;;;5053312;28;20399;-73
2022/02/19 07:11:16;;;;;;;2.72;1.10;;;;;;;;;;5053174;28;20023;-73
2022/02/19 07:13:42;;;;;;;0.40;0.40;;;;;;;;;;5053392;28;20531;-73
2022/02/19 07:16:08;;;;;;;0.63;0.50;;;;;;;;;;5052959;28;20459;-72
2022/02/19 07:18:51;;;;;;;1.40;0.95;;;;;;;;;;5052972;28;20375;-72
2022/02/19 07:21:19;;;;;;;1.95;1.02;;;;;;;;;;5053096;28;20075;-73
2022/02/19 07:23:46;;;;;;;1.27;0.50;;;;;;;;;;5052758;28;20471;-73
2022/02/19 07:26:14;;;;;;;0.35;0.35;;;;;;;;;;5052676;28;20391;-71
2022/02/19 07:28:42;;;;;;;1.95;1.42;;;;;;;;;;5052942;28;20074;-71
2022/02/19 07:31:10;;;;;;;1.77;1.00;;;;;;;;;;5052174;28;20119;-71
2022/02/19 07:33:36;;;;;;;2.00;0.68;;;;;;;;;;5052245;28;20020;-71
2022/02/19 07:36:06;;;;;;;1.20;1.08;;;;;;;;;;5051934;28;20028;-65
2022/02/19 07:38:34;;;;;;;2.83;1.20;;;;;;;;;;5049635;28;20029;-65
2022/02/19 07:41:00;;;;;;;2.25;1.17;;;;;;;;;;5052749;28;20036;-66
2022/02/19 07:43:39;;;;;;;0.55;0.55;;;;;;;;;;5052439;28;20399;-67
2022/02/19 07:46:17;;;;;;;3.67;1.38;;;;;;;;;;5052589;28;20029;-68
2022/02/19 08:00:34;;;;;;;1.83;0.93;;;;;;;;;;5052282;28;20509;-67
2022/02/19 08:03:02;;;;;;;2.88;1.60;;;;;;;;;;5052107;28;20021;-66
2022/02/19 08:05:29;;;;;;;2.38;1.00;;;;;;;;;;5052128;28;20033;-66
2022/02/19 08:07:55;;;;;;;1.58;0.82;;;;;;;;;;5052075;28;20029;-66
2022/02/19 08:10:20;;;;;;;4.55;1.08;;;;;;;;;;5051869;28;20037;-66
2022/02/19 08:12:46;;;;;;;0.82;0.65;;;;;;;;;;5053021;28;20025;-66
2022/02/19 08:15:11;;;;;;;1.05;0.90;;;;;;;;;;5053184;28;20036;-66
2022/02/19 08:17:36;;;;;;;3.97;1.60;;;;;;;;;;5052188;28;20483;-66
2022/02/19 08:20:03;;;;;;;1.27;1.02;;;;;;;;;;5053283;28;20052;-66
2022/02/19 08:22:28;;;;;;;2.58;1.13;;;;;;;;;;5053202;28;20055;-66
2022/02/19 08:25:00;;;;;;;1.05;0.68;;;;;;;;;;5053124;28;20064;-65
2022/02/19 08:27:27;;;;;;;2.58;0.90;;;;;;;;;;5053104;28;20052;-66
2022/02/19 08:29:52;;;;;;;3.05;1.10;;;;;;;;;;5051659;28;20012;-68
2022/02/19 08:32:18;;;;;;;0.98;0.68;;;;;;;;;;5051783;28;20115;-66
2022/02/19 08:34:43;;;;;;;7.32;3.63;;;;;;;;;;5052840;28;20088;-65
2022/02/19 08:37:08;;;;;;;5.05;2.42;;;;;;;;;;5053271;28;20025;-65
2022/02/19 08:39:34;;;;;;;3.08;1.30;;;;;;;;;;5053048;28;20092;-65
2022/02/19 08:41:59;;;;;;;1.63;1.13;;;;;;;;;;5053041;28;20037;-67
2022/02/19 08:44:25;;;;;;;2.05;1.70;;;;;;;;;;5053288;28;20021;-67
2022/02/19 08:46:50;;;;;;;1.48;0.98;;;;;;;;;;5051964;28;20498;-68
2022/02/19 08:49:16;;;;;;;1.73;1.30;;;;;;;;;;5052951;28;20049;-68
2022/02/19 08:51:42;;;;;;;0.90;0.90;;;;;;;;;;5053887;28;20040;-68
2022/02/19 08:54:09;;;;;;;2.10;0.95;;;;;;;;;;5056466;28;20028;-67
2022/02/19 08:56:36;;;;;;;2.25;1.25;;;;;;;;;;5056950;28;20417;-67
2022/02/19 08:59:02;;;;;;;2.38;1.00;;;;;;;;;;5057190;28;20017;-69
2022/02/19 09:01:28;;;;;;;1.92;1.25;;;;;;;;;;5055127;28;20129;-68
2022/02/19 09:03:54;;;;;;;1.05;0.70;;;;;;;;;;5056866;28;20017;-67
2022/02/19 09:06:19;;;;;;;1.17;0.80;;;;;;;;;;5055759;28;20368;-65
2022/02/19 09:08:46;;;;;;;1.27;0.60;;;;;;;;;;5056891;28;20029;-66
2022/02/19 09:11:12;;;;;;;0.65;0.63;;;;;;;;;;5056828;28;20110;-66
2022/02/19 09:13:37;;;;;;;2.30;0.82;;;;;;;;;;5056624;28;20079;-65
2022/02/19 09:16:03;;;;;;;0.50;0.40;;;;;;;;;;5056591;28;20021;-65
2022/02/19 09:18:29;;;;;;;1.30;0.88;;;;;;;;;;5055935;28;20020;-65
2022/02/19 09:20:54;;;;;;;2.25;0.82;;;;;;;;;;5056358;28;20048;-64
2022/02/19 09:23:21;;;;;;;2.65;0.70;;;;;;;;;;5056336;28;20070;-64
2022/02/19 09:25:46;;;;;;;0.90;0.63;;;;;;;;;;5056300;28;20403;-65
2022/02/19 09:28:13;;;;;;;4.97;0.40;;;;;;;;;;5056276;28;20025;-65
2022/02/19 09:30:38;;;;;;;0.93;0.57;;;;;;;;;;5054415;28;20025;-64
2022/02/19 09:33:04;;;;;;;0.52;0.47;;;;;;;;;;5056148;28;20066;-64
2022/02/19 09:35:30;;;;;;;0.50;0.43;;;;;;;;;;5055965;28;20182;-64
2022/02/19 09:37:55;;;;;;;0.80;0.40;;;;;;;;;;5056061;28;20037;-64
2022/02/19 09:40:23;;;;;;;2.25;0.40;;;;;;;;;;5055974;28;20028;-64
2022/02/19 09:42:48;;;;;;;1.50;0.57;;;;;;;;;;5056047;28;20074;-64
2022/02/19 09:45:17;;;;;;;0.57;0.40;;;;;;;;;;5056272;28;20021;-64
2022/02/19 09:47:43;;;;;;;0.47;0.47;;;;;;;;;;5055667;28;20471;-64
2022/02/19 09:50:10;;;;;;;1.45;0.50;;;;;;;;;;5054903;28;20075;-64
2022/02/19 09:52:38;;;;;;;4.15;1.25;;;;;;;;;;5037663;28;20052;-64
2022/02/19 09:55:04;;;;;;;2.53;0.90;;;;;;;;;;5054041;28;20025;-64
2022/02/19 09:57:30;;;;;;;0.40;0.32;;;;;;;;;;5055471;28;20025;-65
2022/02/19 09:59:58;;;;;;;1.38;0.75;;;;;;;;;;5054803;28;20032;-64
2022/02/19 10:02:33;;;;;;;0.95;0.50;;;;;;;;;;5054576;28;20094;-64
2022/02/19 10:05:09;;;;;;;1.88;0.80;;;;;;;;;;5054137;28;20115;-64
2022/02/19 10:07:36;;;;;;;1.45;0.60;;;;;;;;;;5055896;28;20151;-64
2022/02/19 10:10:02;;;;;;;1.30;0.50;;;;;;;;;;5055405;28;20013;-64
2022/02/19 10:12:42;;;;;;;0.73;0.65;;;;;;;;;;5055386;28;20502;-64
2022/02/19 10:15:09;;;;;;;0.40;0.40;;;;;;;;;;5055620;28;20025;-64
2022/02/19 10:17:37;;;;;;;4.05;0.90;;;;;;;;;;5056034;28;20021;-64
2022/02/19 10:20:05;;;;;;;1.13;0.68;;;;;;;;;;5055189;28;20028;-64
2022/02/19 10:22:33;;;;;;;2.50;0.98;;;;;;;;;;5055320;28;20410;-64
2022/02/19 10:24:59;;;;;;;0.73;0.40;;;;;;;;;;5055315;28;20044;-64
2022/02/19 10:27:56;;;;;;;1.45;0.82;;;;;;;;;;5055285;28;20467;-64
2022/02/19 10:30:23;;;;;;;2.25;0.60;;;;;;;;;;5052966;28;20055;-64
2022/02/19 10:32:53;;;;;;;1.27;0.50;;;;;;;;;;5055063;28;20020;-64
2022/02/19 10:35:20;;;;;;;1.52;0.93;;;;;;;;;;5053754;28;20120;-64
2022/02/19 10:37:46;;;;;;;1.55;0.75;;;;;;;;;;5053678;28;20023;-64
2022/02/19 10:40:32;;;;;;;0.55;0.52;;;;;;;;;;5055058;28;20025;-66
2022/02/19 10:42:59;;;;;;;1.10;0.63;;;;;;;;;;5054907;28;20115;-66
2022/02/19 10:45:25;;;;;;;0.40;0.40;;;;;;;;;;5054876;28;20518;-66
2022/02/19 10:47:54;;;;;;;1.58;0.50;;;;;;;;;;5053190;28;20025;-66
2022/02/19 10:50:21;;;;;;;1.90;0.70;;;;;;;;;;5053505;28;20113;-68
2022/02/19 10:52:54;;;;;;;1.95;0.60;;;;;;;;;;5053406;28;20136;-68
2022/02/19 10:55:23;;;;;;;1.10;0.70;;;;;;;;;;5054536;28;20067;-68
2022/02/19 10:57:55;;;;;;;1.00;0.60;;;;;;;;;;5036777;28;20139;-68
2022/02/19 11:00:27;;;;;;;0.52;0.40;;;;;;;;;;5053352;28;20035;-68
2022/02/19 11:02:56;;;;;;;0.80;0.50;;;;;;;;;;5054560;28;20029;-68
2022/02/19 11:05:21;;;;;;;2.35;0.82;;;;;;;;;;5053066;28;20043;-69
2022/02/19 11:07:48;;;;;;;0.95;0.45;;;;;;;;;;5053090;28;20033;-69
2022/02/19 11:10:15;;;;;;;0.40;0.40;;;;;;;;;;5054147;28;20468;-69
2022/02/19 11:12:41;;;;;;;3.83;0.98;;;;;;;;;;5054275;28;20032;-69
2022/02/19 11:15:07;;;;;;;1.52;0.80;;;;;;;;;;5052548;28;20013;-69
2022/02/19 11:17:36;;;;;;;0.60;0.50;;;;;;;;;;5054374;28;20031;-68
2022/02/19 11:20:03;;;;;;;0.85;0.75;;;;;;;;;;5054308;28;20025;-68
2022/02/19 11:22:30;;;;;;;1.95;0.60;;;;;;;;;;5054025;28;20025;-68
2022/02/19 11:24:56;;;;;;;2.95;0.82;;;;;;;;;;5052936;28;20025;-68
2022/02/19 11:27:23;;;;;;;0.50;0.50;;;;;;;;;;5052899;28;20025;-68
2022/02/19 11:29:57;;;;;;;1.17;0.70;;;;;;;;;;5054033;28;20051;-69
2022/02/19 11:32:30;;;;;;;0.32;0.32;;;;;;;;;;5053850;28;20395;-69
2022/02/19 11:35:00;;;;;;;0.35;0.32;;;;;;;;;;5052448;28;20036;-68
2022/02/19 11:37:26;;;;;;;2.38;0.95;;;;;;;;;;5052567;28;20032;-68
2022/02/19 11:40:05;;;;;;;2.05;1.02;;;;;;;;;;5053611;28;20142;-71
2022/02/19 11:42:44;;;;;;;1.30;0.85;;;;;;;;;;5053929;28;20025;-71
2022/02/19 11:45:19;;;;;;;2.05;0.60;;;;;;;;;;5053863;28;20491;-72
2022/02/19 11:47:45;;;;;;;0.60;0.40;;;;;;;;;;5052112;28;20075;-72
2022/02/19 11:50:18;;;;;;;0.68;0.68;;;;;;;;;;5053523;28;20116;-72
2022/02/19 11:53:05;;;;;;;1.35;0.82;;;;;;;;;;5053494;28;20553;-72
2022/02/19 11:55:32;;;;;;;1.00;0.90;;;;;;;;;;5053407;28;20031;-72
2022/02/19 11:58:09;;;;;;;1.58;0.73;;;;;;;;;;5052301;28;20020;-72
2022/02/19 12:00:44;;;;;;;2.83;0.80;;;;;;;;;;5052148;28;20064;-71
2022/02/19 12:03:16;;;;;;;1.27;0.60;;;;;;;;;;5052235;28;20021;-71
2022/02/19 12:06:00;;;;;;;0.38;0.38;;;;;;;;;;5053250;28;20541;-71
2022/02/19 12:08:26;;;;;;;1.42;0.65;;;;;;;;;;5052094;28;20025;-72
2022/02/19 12:11:05;;;;;;;1.30;0.60;;;;;;;;;;5051988;28;20017;-71
2022/02/19 12:13:44;;;;;;;0.82;0.70;;;;;;;;;;5053338;28;20025;-71
2022/02/19 12:16:28;;;;;;;1.52;0.90;;;;;;;;;;5053428;28;20037;-71
2022/02/19 12:19:04;;;;;;;2.65;0.80;;;;;;;;;;5053527;28;20399;-71
2022/02/19 12:21:31;;;;;;;0.82;0.50;;;;;;;;;;5051750;28;20028;-71
2022/02/19 12:24:15;;;;;;;1.25;0.85;;;;;;;;;;5051869;28;20025;-71
2022/02/19 12:27:07;;;;;;;1.83;1.00;;;;;;;;;;5052310;28;20493;-71
2022/02/19 12:29:38;;;;;;;0.60;0.60;;;;;;;;;;5051999;28;20037;-71
2022/02/19 12:32:06;;;;;;;2.35;1.05;;;;;;;;;;5053075;28;20068;-71
2022/02/19 12:34:47;;;;;;;1.40;0.77;;;;;;;;;;5053054;28;20055;-72
2022/02/19 12:37:16;;;;;;;2.97;1.25;;;;;;;;;;5053200;28;20017;-72
2022/02/19 12:39:44;;;;;;;1.63;0.88;;;;;;;;;;5051802;28;20024;-72
2022/02/19 12:42:15;;;;;;;1.35;1.15;;;;;;;;;;5051824;28;20408;-72
2022/02/19 12:44:41;;;;;;;0.20;0.20;;;;;;;;;;5052991;28;20025;-72
2022/02/19 12:47:07;;;;;;;2.40;0.60;;;;;;;;;;5052895;28;20096;-72
2022/02/19 12:49:32;;;;;;;1.42;0.73;;;;;;;;;;5051100;28;20055;-72
2022/02/19 12:52:00;;;;;;;1.75;1.15;;;;;;;;;;5052821;28;20033;-71
2022/02/19 12:54:34;;;;;;;4.75;2.25;;;;;;;;;;5052871;28;20033;-71
2022/02/19 12:57:01;;;;;;;2.33;1.65;;;;;;;;;;5051578;28;20498;-71
2022/02/19 12:59:27;;;;;;;0.95;0.60;;;;;;;;;;5052830;28;20029;-71
2022/02/19 13:01:58;;;;;;;1.65;0.50;;;;;;;;;;5051363;28;20069;-71
2022/02/19 13:04:30;;;;;;;2.40;1.60;;;;;;;;;;5053216;28;20056;-71
2022/02/19 13:06:56;;;;;;;1.08;0.98;;;;;;;;;;5053458;28;20484;-72
2022/02/19 13:09:21;;;;;;;0.73;0.73;;;;;;;;;;5053534;28;20029;-70
2022/02/19 13:11:52;;;;;;;1.60;0.98;;;;;;;;;;5053120;28;20391;-70
2022/02/19 13:14:18;;;;;;;1.90;0.55;;;;;;;;;;5052986;28;20422;-70
2022/02/19 13:16:56;;;;;;;2.40;1.23;;;;;;;;;;5052964;28;20021;-70
2022/02/19 13:19:22;;;;;;;2.50;0.98;;;;;;;;;;5052947;28;20052;-70
2022/02/19 13:21:58;;;;;;;2.05;1.30;;;;;;;;;;5051790;28;20104;-70
2022/02/19 13:24:27;;;;;;;2.30;1.00;;;;;;;;;;5052705;28;20056;-70
2022/02/19 13:26:53;;;;;;;3.65;1.27;;;;;;;;;;5052709;28;20390;-70
2022/02/19 13:29:23;;;;;;;1.52;0.50;;;;;;;;;;5051255;28;20070;-69
2022/02/19 13:31:50;;;;;;;4.40;1.25;;;;;;;;;;5052743;28;20397;-69
2022/02/19 13:34:16;;;;;;;1.52;1.23;;;;;;;;;;5052746;28;20017;-69
2022/02/19 13:36:42;;;;;;;2.95;1.20;;;;;;;;;;5053506;28;20425;-69
2022/02/19 13:39:20;;;;;;;1.88;0.93;;;;;;;;;;5056242;28;20079;-68
2022/02/19 13:41:50;;;;;;;0.75;0.65;;;;;;;;;;5056229;28;20044;-68
2022/02/19 13:44:15;;;;;;;1.92;1.10;;;;;;;;;;5054804;28;20071;-67
2022/02/19 13:46:41;;;;;;;1.13;0.73;;;;;;;;;;5056303;28;20456;-68
2022/02/19 13:49:06;;;;;;;3.28;1.13;;;;;;;;;;5055535;28;20056;-67
2022/02/19 13:51:33;;;;;;;2.47;1.42;;;;;;;;;;5055981;28;20025;-68
2022/02/19 13:54:18;;;;;;;3.40;1.50;;;;;;;;;;5054716;28;20040;-69
2022/02/19 13:56:44;;;;;;;3.05;1.67;;;;;;;;;;5055821;28;20021;-69
2022/02/19 13:59:16;;;;;;;1.65;1.55;;;;;;;;;;5055926;28;20374;-70
2022/02/19 14:01:42;;;;;;;3.42;2.25;;;;;;;;;;5055757;28;20033;-69
2022/02/19 14:04:08;;;;;;;2.42;1.45;;;;;;;;;;5055795;28;20036;-73
2022/02/19 14:06:37;;;;;;;4.68;2.08;;;;;;;;;;5055700;28;20032;-68
2022/02/19 14:09:20;;;;;;;2.65;1.60;;;;;;;;;;5055123;28;20032;-68
2022/02/19 14:11:54;;;;;;;2.38;1.65;;;;;;;;;;5059050;28;20036;-67
2022/02/19 14:14:22;;;;;;;2.13;1.38;;;;;;;;;;5034413;28;20115;-70
2022/02/19 14:17:04;;;;;;;1.42;1.10;;;;;;;;;;5035814;28;20036;-70
2022/02/19 14:19:30;;;;;;;2.10;1.50;;;;;;;;;;5034268;28;20035;-70
2022/02/19 14:22:04;;;;;;;2.70;1.25;;;;;;;;;;5034503;28;20029;-70
2022/02/19 14:24:30;;;;;;;3.28;1.30;;;;;;;;;;5035497;28;20026;-69
2022/02/19 14:27:12;;;;;;;2.72;1.55;;;;;;;;;;5035530;28;20115;-69
2022/02/19 14:29:38;;;;;;;4.32;1.30;;;;;;;;;;5035286;28;20049;-69
2022/02/19 14:32:04;;;;;;;2.15;1.50;;;;;;;;;;5035155;28;20033;-69
2022/02/19 14:34:30;;;;;;;1.80;0.88;;;;;;;;;;5047680;28;20052;-69
2022/02/19 14:36:57;;;;;;;2.35;1.60;;;;;;;;;;5054887;28;20029;-69
2022/02/19 14:39:22;;;;;;;2.22;1.45;;;;;;;;;;5053910;28;20029;-69
2022/02/19 14:41:50;;;;;;;2.47;1.67;;;;;;;;;;5054951;28;20021;-68
2022/02/19 14:44:16;;;;;;;4.47;2.20;;;;;;;;;;5054904;28;20036;-68
2022/02/19 14:46:42;;;;;;;3.17;1.77;;;;;;;;;;5054081;28;20021;-68
2022/02/19 14:49:08;;;;;;;3.08;1.67;;;;;;;;;;5053520;28;20119;-68
2022/02/19 14:51:33;;;;;;;3.35;1.33;;;;;;;;;;5054787;28;20025;-67
2022/02/19 14:53:58;;;;;;;2.33;1.23;;;;;;;;;;5054784;28;20037;-66
2022/02/19 14:56:25;;;;;;;1.70;1.33;;;;;;;;;;5054580;28;20025;-66
2022/02/19 14:58:51;;;;;;;2.95;1.35;;;;;;;;;;5054587;28;20028;-65
2022/02/19 15:01:16;;;;;;;4.18;1.50;;;;;;;;;;5054601;28;20021;-65
2022/02/19 15:03:42;;;;;;;2.50;1.40;;;;;;;;;;5054278;28;20033;-65
2022/02/19 15:06:07;;;;;;;7.47;1.65;;;;;;;;;;5036654;28;20040;-68